createdAt,value
2019-04-30T00:01:01.013Z,85.19
2019-04-30T00:03:36.674Z,85.31
2019-04-30T00:06:07.646Z,85.37
2019-04-30T00:08:39.246Z,84.77
2019-04-30T00:11:10.814Z,84.68
2019-04-30T00:13:42.404Z,84.44
2019-04-30T00:16:15.368Z,84.73
2019-04-30T00:18:57.038Z,85.04
2019-04-30T00:21:18.965Z,85.04
2019-04-30T00:23:49.360Z,84.76
2019-04-30T00:26:20.036Z,84.54
2019-04-30T00:28:51.120Z,85.16
2019-04-30T00:31:23.802Z,84.78
2019-04-30T00:33:57.862Z,84.85
2019-04-30T00:36:33.460Z,85.49
2019-04-30T00:38:58.606Z,84.97
2019-04-30T00:41:30.329Z,84.94
2019-04-30T00:44:01.199Z,84.59
2019-04-30T00:46:31.642Z,84.33
2019-04-30T00:49:09.318Z,83.82
2019-04-30T00:51:35.473Z,83.57
2019-04-30T00:54:06.338Z,84.16
2019-04-30T00:56:37.205Z,84.24
2019-04-30T00:59:10.463Z,83.65
2019-04-30T01:01:58.495Z,83.77
2019-04-30T01:04:36.029Z,83.98
2019-04-30T01:07:08.643Z,84.34
2019-04-30T01:09:39.551Z,84.77
2019-04-30T01:12:11.432Z,83.96
2019-04-30T01:14:41.922Z,84.21
2019-04-30T01:17:12.512Z,84.48
2019-04-30T01:19:46.028Z,84.76
2019-04-30T01:22:21.536Z,84.87
2019-04-30T01:24:49.673Z,84.95
2019-04-30T01:27:20.841Z,84.95
2019-04-30T01:29:51.278Z,84.64
2019-04-30T01:32:21.730Z,84.87
2019-04-30T01:34:54.034Z,85.10
2019-04-30T01:37:28.739Z,84.98
2019-04-30T01:39:58.808Z,84.97
2019-04-30T01:42:29.954Z,85.03
2019-04-30T01:45:00.690Z,85.36
2019-04-30T01:47:32.965Z,85.54
2019-04-30T01:50:05.008Z,85.46
2019-04-30T01:52:54.042Z,85.36
2019-04-30T01:56:03.042Z,85.16
2019-04-30T01:58:49.495Z,84.89
2019-04-30T02:01:22.274Z,85.36
2019-04-30T02:03:52.706Z,85.95
2019-04-30T02:06:23.451Z,86.32
2019-04-30T02:08:53.943Z,86.45
2019-04-30T02:11:24.727Z,86.82
2019-04-30T02:13:55.336Z,87.08
2019-04-30T02:16:25.838Z,87.07
2019-04-30T02:18:56.277Z,86.89
2019-04-30T02:21:27.055Z,87.54
2019-04-30T02:23:58.859Z,87.66
2019-04-30T02:26:29.899Z,87.67
2019-04-30T02:29:00.650Z,87.79
2019-04-30T02:31:31.527Z,87.77
2019-04-30T02:34:22.093Z,87.69
2019-04-30T02:37:01.938Z,87.27
2019-04-30T02:39:32.369Z,87.76
2019-04-30T02:42:04.586Z,87.65
2019-04-30T02:44:36.650Z,88.21
2019-04-30T02:47:10.248Z,87.90
2019-04-30T02:49:43.067Z,88.47
2019-04-30T02:52:15.408Z,88.66
2019-04-30T02:54:49.999Z,88.96
2019-04-30T02:57:23.379Z,88.64
2019-04-30T03:00:12.273Z,88.62
2019-04-30T03:02:43.108Z,89.25
2019-04-30T03:05:14.611Z,88.62
2019-04-30T03:07:45.859Z,88.81
2019-04-30T03:10:16.469Z,89.39
2019-04-30T03:12:47.053Z,89.46
2019-04-30T03:15:19.494Z,89.29
2019-04-30T03:18:05.230Z,88.84
2019-04-30T03:20:59.869Z,89.07
2019-04-30T03:23:29.687Z,88.78
2019-04-30T03:26:00.218Z,88.90
2019-04-30T03:28:30.756Z,88.54
2019-04-30T03:31:04.496Z,88.68
2019-04-30T03:33:33.550Z,88.27
2019-04-30T03:36:04.142Z,88.31
2019-04-30T03:38:34.607Z,87.96
2019-04-30T03:41:05.045Z,88.32
2019-04-30T03:43:36.017Z,88.13
2019-04-30T03:46:06.452Z,88.16
2019-04-30T03:48:39.401Z,88.09
2019-04-30T03:51:10.647Z,88.43
2019-04-30T03:53:42.757Z,88.43
2019-04-30T03:56:13.343Z,88.44
2019-04-30T03:58:43.819Z,88.21
2019-04-30T04:01:23.948Z,88.36
2019-04-30T04:04:12.182Z,87.47
2019-04-30T04:06:49.045Z,87.91
2019-04-30T04:09:23.809Z,87.72
2019-04-30T04:11:54.599Z,88.21
2019-04-30T04:14:25.713Z,88.26
2019-04-30T04:16:56.765Z,88.30
2019-04-30T04:19:29.255Z,88.29
2019-04-30T04:22:00.467Z,88.56
2019-04-30T04:24:32.408Z,88.58
2019-04-30T04:27:02.914Z,88.88
2019-04-30T04:29:33.374Z,89.07
2019-04-30T04:32:04.381Z,89.25
2019-04-30T04:34:35.588Z,89.56
2019-04-30T04:37:06.430Z,89.80
2019-04-30T04:39:38.920Z,89.88
2019-04-30T04:42:10.116Z,90.01
2019-04-30T04:44:40.865Z,90.53
2019-04-30T04:47:12.077Z,89.67
2019-04-30T04:49:42.686Z,90.10
2019-04-30T04:52:13.130Z,89.82
2019-04-30T04:54:44.611Z,90.04
2019-04-30T04:57:19.544Z,89.72
2019-04-30T04:59:49.998Z,89.29
2019-04-30T05:02:54.831Z,89.20
2019-04-30T05:05:25.278Z,88.84
2019-04-30T05:07:56.323Z,89.25
2019-04-30T05:10:29.173Z,88.99
2019-04-30T05:12:59.739Z,89.24
2019-04-30T05:15:30.326Z,89.12
2019-04-30T05:18:00.815Z,88.47
2019-04-30T05:20:31.258Z,88.42
2019-04-30T05:23:01.800Z,88.13
2019-04-30T05:25:32.566Z,87.52
2019-04-30T05:28:03.438Z,87.84
2019-04-30T05:30:34.198Z,87.80
2019-04-30T05:33:04.687Z,87.17
2019-04-30T05:35:35.131Z,86.93
2019-04-30T05:38:05.573Z,86.55
2019-04-30T05:40:36.397Z,86.33
2019-04-30T05:43:09.027Z,87.26
2019-04-30T05:45:39.108Z,86.79
2019-04-30T05:48:09.820Z,86.40
2019-04-30T05:50:40.268Z,86.30
2019-04-30T05:53:10.708Z,86.06
2019-04-30T05:55:41.534Z,86.34
2019-04-30T05:58:12.395Z,85.43
2019-04-30T06:00:43.244Z,86.15
2019-04-30T06:03:25.352Z,86.00
2019-04-30T06:05:47.159Z,85.31
2019-04-30T06:08:20.013Z,85.56
2019-04-30T06:11:04.715Z,84.51
2019-04-30T06:13:58.730Z,84.24
2019-04-30T06:16:29.931Z,83.70
2019-04-30T06:19:00.737Z,83.24
2019-04-30T06:21:31.332Z,82.51
2019-04-30T06:24:02.244Z,82.18
2019-04-30T06:26:32.690Z,81.73
2019-04-30T06:29:03.875Z,80.91
2019-04-30T06:31:37.472Z,81.95
2019-04-30T06:34:06.552Z,81.61
2019-04-30T06:36:50.663Z,81.34
2019-04-30T06:39:11.647Z,81.96
2019-04-30T06:41:42.258Z,82.15
2019-04-30T06:44:12.884Z,82.71
2019-04-30T06:46:43.935Z,83.03
2019-04-30T06:49:14.865Z,83.23
2019-04-30T06:51:45.826Z,82.71
2019-04-30T06:54:19.036Z,83.46
2019-04-30T06:56:48.745Z,83.60
2019-04-30T06:59:20.345Z,83.16
2019-04-30T07:01:50.803Z,80.99
2019-04-30T07:04:21.242Z,81.06
2019-04-30T07:06:51.738Z,79.84
2019-04-30T07:09:51.474Z,79.80
2019-04-30T07:12:30.609Z,79.47
2019-04-30T07:15:02.795Z,77.20
2019-04-30T07:17:33.570Z,76.78
2019-04-30T07:20:04.327Z,76.92
2019-04-30T07:22:39.730Z,76.67
2019-04-30T07:25:09.433Z,77.35
2019-04-30T07:27:40.307Z,76.54
2019-04-30T07:30:11.210Z,75.88
2019-04-30T07:32:41.652Z,76.57
2019-04-30T07:35:12.407Z,76.13
2019-04-30T07:37:42.867Z,76.77
2019-04-30T07:40:13.744Z,76.51
2019-04-30T07:42:45.148Z,75.61
2019-04-30T07:45:15.627Z,75.82
2019-04-30T07:47:46.082Z,74.88
2019-04-30T07:50:18.075Z,75.11
2019-04-30T07:53:01.636Z,74.43
2019-04-30T07:55:21.386Z,74.13
2019-04-30T07:57:51.829Z,72.44
2019-04-30T08:00:22.603Z,73.91
2019-04-30T08:03:03.282Z,74.55
2019-04-30T08:05:40.188Z,72.01
2019-04-30T08:08:21.023Z,72.31
2019-04-30T08:10:43.060Z,71.43
2019-04-30T08:13:15.093Z,69.44
2019-04-30T08:15:46.168Z,66.94
2019-04-30T08:18:18.402Z,69.99
2019-04-30T08:20:49.059Z,68.52
2019-04-30T08:23:33.051Z,68.30
2019-04-30T08:25:52.488Z,68.86
2019-04-30T08:28:22.991Z,67.51
2019-04-30T08:30:53.496Z,70.68
2019-04-30T08:33:24.364Z,70.76
2019-04-30T08:35:55.263Z,71.00
2019-04-30T08:38:25.771Z,71.77
2019-04-30T08:40:58.779Z,70.80
2019-04-30T08:43:29.269Z,69.61
2019-04-30T08:46:00.194Z,70.29
2019-04-30T08:48:45.346Z,69.93
2019-04-30T08:51:03.116Z,69.12
2019-04-30T08:53:34.253Z,69.71
2019-04-30T08:56:04.947Z,69.68
2019-04-30T08:58:35.747Z,69.49
2019-04-30T09:01:06.253Z,67.92
2019-04-30T09:03:36.704Z,67.87
2019-04-30T09:06:19.853Z,68.24
2019-04-30T09:08:53.531Z,68.40
2019-04-30T09:11:30.200Z,67.18
2019-04-30T09:13:56.186Z,67.05
2019-04-30T09:16:26.702Z,67.26
2019-04-30T09:18:57.247Z,67.93
2019-04-30T09:21:29.843Z,68.25
2019-04-30T09:24:00.649Z,67.26
2019-04-30T09:26:31.264Z,66.85
2019-04-30T09:29:02.070Z,66.74
2019-04-30T09:31:32.514Z,67.58
2019-04-30T09:34:14.172Z,66.68
2019-04-30T09:36:35.908Z,67.22
2019-04-30T09:39:08.937Z,66.70
2019-04-30T09:41:41.187Z,67.20
2019-04-30T09:44:12.186Z,65.62
2019-04-30T09:46:42.898Z,65.95
2019-04-30T09:49:13.339Z,66.31
2019-04-30T09:51:43.881Z,68.71
2019-04-30T09:54:14.600Z,65.40
2019-04-30T09:56:45.487Z,65.63
2019-04-30T09:59:15.992Z,66.77
2019-04-30T10:01:46.488Z,67.05
2019-04-30T10:04:19.276Z,65.45
2019-04-30T10:06:50.126Z,62.37
2019-04-30T10:09:21.217Z,64.40
2019-04-30T10:12:04.047Z,63.70
2019-04-30T10:14:35.380Z,64.61
2019-04-30T10:17:27.747Z,62.29
2019-04-30T10:19:58.201Z,61.49
2019-04-30T10:22:28.668Z,63.64
2019-04-30T10:24:59.741Z,61.87
2019-04-30T10:27:30.330Z,60.23
2019-04-30T10:30:01.563Z,60.84
2019-04-30T10:32:32.415Z,61.93
2019-04-30T10:35:03.200Z,62.57
2019-04-30T10:37:33.818Z,61.14
2019-04-30T10:40:04.539Z,63.79
2019-04-30T10:42:35.079Z,64.12
2019-04-30T10:45:09.738Z,63.70
2019-04-30T10:47:41.630Z,63.28
2019-04-30T10:50:12.783Z,63.83
2019-04-30T10:52:43.240Z,63.74
2019-04-30T10:55:14.622Z,63.29
2019-04-30T10:57:45.462Z,63.45
2019-04-30T11:00:18.589Z,61.07
2019-04-30T11:02:49.714Z,61.97
2019-04-30T11:05:21.162Z,62.99
2019-04-30T11:07:53.011Z,61.81
2019-04-30T11:10:25.234Z,62.51
2019-04-30T11:12:56.545Z,62.76
2019-04-30T11:15:26.998Z,60.53
2019-04-30T11:17:59.665Z,58.78
2019-04-30T11:20:30.637Z,58.86
2019-04-30T11:23:13.275Z,59.28
2019-04-30T11:25:34.633Z,61.30
2019-04-30T11:28:06.638Z,60.42
2019-04-30T11:30:39.277Z,57.08
2019-04-30T11:33:10.281Z,57.13
2019-04-30T11:35:41.805Z,57.13
2019-04-30T11:38:12.740Z,56.85
2019-04-30T11:40:43.187Z,58.10
2019-04-30T11:43:13.632Z,60.42
2019-04-30T11:46:46.654Z,61.76
2019-04-30T11:49:17.099Z,59.67
2019-04-30T11:51:47.542Z,58.10
2019-04-30T11:54:18.702Z,59.18
2019-04-30T11:56:50.460Z,59.28
2019-04-30T11:59:21.134Z,59.01
2019-04-30T12:01:53.805Z,59.40
2019-04-30T12:04:24.415Z,58.44
2019-04-30T12:06:56.798Z,55.51
2019-04-30T12:09:46.223Z,55.28
2019-04-30T12:12:16.664Z,53.79
2019-04-30T12:14:47.108Z,57.02
2019-04-30T12:17:17.607Z,55.92
2019-04-30T12:19:48.837Z,54.87
2019-04-30T12:22:20.317Z,55.28
2019-04-30T12:25:02.337Z,56.56
2019-04-30T12:27:23.421Z,54.99
2019-04-30T12:29:53.869Z,53.06
2019-04-30T12:32:24.749Z,55.20
2019-04-30T12:34:55.372Z,55.75
2019-04-30T12:37:26.326Z,55.34
2019-04-30T12:39:56.829Z,54.30
2019-04-30T12:42:28.668Z,54.39
2019-04-30T12:44:59.634Z,53.65
2019-04-30T12:47:31.791Z,54.71
2019-04-30T12:50:24.193Z,52.29
2019-04-30T12:52:59.539Z,53.75
2019-04-30T12:55:49.099Z,51.48
2019-04-30T12:58:20.707Z,53.61
2019-04-30T13:00:51.663Z,54.33
2019-04-30T13:03:22.106Z,54.43
2019-04-30T13:05:53.133Z,52.52
2019-04-30T13:08:24.980Z,53.76
2019-04-30T13:10:56.406Z,53.69
2019-04-30T13:13:31.417Z,53.63
2019-04-30T13:16:00.627Z,52.37
2019-04-30T13:18:31.070Z,53.70
2019-04-30T13:21:01.660Z,54.42
2019-04-30T13:23:32.095Z,54.64
2019-04-30T13:26:03.448Z,54.14
2019-04-30T13:28:44.291Z,54.14
2019-04-30T13:31:15.139Z,53.03
2019-04-30T13:33:51.260Z,52.80
2019-04-30T13:36:22.959Z,52.59
2019-04-30T13:39:19.525Z,52.17
2019-04-30T13:41:55.552Z,52.77
2019-04-30T13:44:29.500Z,53.64
2019-04-30T13:46:59.919Z,53.06
2019-04-30T13:49:30.373Z,53.04
2019-04-30T13:52:01.205Z,53.08
2019-04-30T13:54:32.024Z,53.39
2019-04-30T13:57:03.174Z,54.48
2019-04-30T13:59:34.388Z,53.98
2019-04-30T14:02:05.079Z,54.45
2019-04-30T14:04:43.140Z,54.29
2019-04-30T14:07:27.780Z,51.63
2019-04-30T14:09:58.620Z,54.89
2019-04-30T14:12:30.991Z,54.05
2019-04-30T14:15:01.440Z,54.10
2019-04-30T14:17:32.312Z,54.79
2019-04-30T14:20:03.169Z,54.39
2019-04-30T14:22:33.623Z,55.06
2019-04-30T14:25:05.083Z,54.57
2019-04-30T14:27:35.603Z,55.46
2019-04-30T14:30:06.641Z,53.61
2019-04-30T14:32:37.167Z,52.09
2019-04-30T14:35:09.126Z,53.18
2019-04-30T14:37:40.099Z,54.92
2019-04-30T14:40:12.906Z,54.71
2019-04-30T14:42:49.497Z,55.73
2019-04-30T14:45:28.347Z,55.61
2019-04-30T14:48:05.150Z,55.29
2019-04-30T14:50:38.547Z,55.66
2019-04-30T14:53:25.291Z,53.40
2019-04-30T14:56:19.684Z,54.67
2019-04-30T14:59:28.984Z,53.42
2019-04-30T15:02:11.347Z,53.70
2019-04-30T15:04:42.653Z,55.62
2019-04-30T15:07:14.212Z,55.45
2019-04-30T15:09:44.708Z,54.53
2019-04-30T15:12:15.927Z,56.50
2019-04-30T15:14:46.391Z,54.78
2019-04-30T15:17:17.230Z,54.60
2019-04-30T15:19:49.409Z,55.52
2019-04-30T15:22:21.237Z,53.04
2019-04-30T15:24:52.103Z,52.23
2019-04-30T15:27:22.903Z,52.43
2019-04-30T15:29:57.046Z,53.24
2019-04-30T15:32:25.916Z,54.41
2019-04-30T15:34:56.367Z,54.26
2019-04-30T15:37:28.656Z,53.84
2019-04-30T15:39:59.344Z,54.90
2019-04-30T15:42:29.800Z,54.27
2019-04-30T15:45:00.621Z,55.22
2019-04-30T15:47:31.117Z,53.40
2019-04-30T15:50:02.340Z,54.07
2019-04-30T15:52:33.172Z,53.52
2019-04-30T15:55:03.686Z,56.42
2019-04-30T15:57:34.196Z,56.56
2019-04-30T16:00:05.403Z,56.08
2019-04-30T16:03:00.111Z,55.04
2019-04-30T16:05:35.550Z,55.50
2019-04-30T16:08:31.759Z,56.48
2019-04-30T16:11:24.523Z,56.84
2019-04-30T16:14:20.672Z,57.32
2019-04-30T16:17:07.885Z,56.77
2019-04-30T16:19:38.547Z,56.49
2019-04-30T16:22:09.167Z,56.74
2019-04-30T16:24:39.627Z,57.25
2019-04-30T16:27:10.143Z,57.71
2019-04-30T16:29:40.847Z,58.94
2019-04-30T16:32:11.772Z,58.86
2019-04-30T16:34:42.224Z,58.08
2019-04-30T16:37:13.075Z,57.08
2019-04-30T16:39:43.607Z,58.26
2019-04-30T16:42:14.063Z,58.35
2019-04-30T16:44:44.512Z,58.46
2019-04-30T16:47:17.045Z,57.96
2019-04-30T16:49:49.278Z,58.06
2019-04-30T16:52:19.401Z,58.83
2019-04-30T16:54:49.921Z,59.71
2019-04-30T16:57:21.090Z,59.32
2019-04-30T16:59:53.421Z,59.66
2019-04-30T17:02:25.935Z,59.52
2019-04-30T17:05:01.338Z,59.35
2019-04-30T17:07:38.707Z,59.95
2019-04-30T17:10:26.031Z,60.53
2019-04-30T17:13:15.750Z,60.52
2019-04-30T17:15:46.337Z,60.87
2019-04-30T17:18:18.923Z,60.84
2019-04-30T17:20:49.308Z,60.57
2019-04-30T17:23:19.811Z,61.44
2019-04-30T17:25:50.281Z,60.78
2019-04-30T17:28:21.095Z,61.62
2019-04-30T17:30:51.615Z,62.52
2019-04-30T17:33:22.064Z,61.89
2019-04-30T17:35:52.527Z,61.89
2019-04-30T17:38:23.083Z,61.89
2019-04-30T17:40:54.298Z,62.12
2019-04-30T17:43:24.774Z,62.22
2019-04-30T17:45:55.275Z,62.80
2019-04-30T17:48:26.070Z,62.78
2019-04-30T17:50:56.903Z,63.48
2019-04-30T17:53:28.774Z,63.61
2019-04-30T17:56:00.019Z,63.79
2019-04-30T17:58:31.190Z,63.79
2019-04-30T18:01:03.412Z,63.84
2019-04-30T18:03:33.972Z,63.61
2019-04-30T18:06:04.561Z,64.01
2019-04-30T18:08:36.356Z,64.01
2019-04-30T18:11:07.478Z,63.69
2019-04-30T18:13:38.211Z,64.54
2019-04-30T18:16:09.013Z,64.39
2019-04-30T18:18:51.299Z,64.85
2019-04-30T18:21:48.615Z,65.06
2019-04-30T18:24:53.255Z,65.53
2019-04-30T18:27:46.005Z,65.57
2019-04-30T18:30:13.116Z,65.43
2019-04-30T18:32:44.027Z,65.53
2019-04-30T18:35:14.507Z,65.26
2019-04-30T18:37:44.962Z,66.21
2019-04-30T18:40:15.714Z,65.84
2019-04-30T18:42:46.548Z,66.06
2019-04-30T18:45:19.295Z,65.86
2019-04-30T18:47:49.902Z,65.32
2019-04-30T18:50:20.424Z,65.62
2019-04-30T18:52:53.131Z,65.65
2019-04-30T18:55:23.640Z,65.71
2019-04-30T18:57:56.898Z,65.67
2019-04-30T19:00:32.428Z,66.08
2019-04-30T19:03:04.168Z,65.86
2019-04-30T19:05:39.331Z,65.98
2019-04-30T19:08:19.439Z,65.56
2019-04-30T19:11:24.369Z,65.32
2019-04-30T19:14:16.838Z,64.97
2019-04-30T19:17:21.947Z,64.89
2019-04-30T19:20:04.626Z,64.93
2019-04-30T19:22:35.138Z,64.49
2019-04-30T19:25:06.397Z,62.75
2019-04-30T19:27:37.363Z,62.54
2019-04-30T19:30:09.343Z,62.11
2019-04-30T19:32:40.503Z,62.51
2019-04-30T19:35:11.470Z,63.23
2019-04-30T19:37:41.995Z,63.75
2019-04-30T19:40:12.541Z,64.41
2019-04-30T19:42:42.987Z,64.63
2019-04-30T19:45:13.587Z,64.93
2019-04-30T19:47:44.375Z,64.53
2019-04-30T19:50:15.491Z,63.51
2019-04-30T19:52:46.767Z,62.69
2019-04-30T19:55:20.476Z,62.42
2019-04-30T19:57:51.137Z,62.39
2019-04-30T20:00:21.975Z,62.14
2019-04-30T20:02:57.154Z,61.84
2019-04-30T20:05:28.677Z,61.03
2019-04-30T20:07:59.397Z,61.34
2019-04-30T20:10:30.215Z,61.40
2019-04-30T20:13:02.012Z,61.80
2019-04-30T20:15:32.860Z,62.40
2019-04-30T20:18:05.939Z,62.62
2019-04-30T20:20:40.185Z,63.53
2019-04-30T20:23:15.753Z,64.25
2019-04-30T20:25:46.649Z,64.61
2019-04-30T20:28:17.962Z,64.58
2019-04-30T20:30:49.049Z,63.68
2019-04-30T20:33:19.939Z,63.76
2019-04-30T20:35:50.400Z,61.71
2019-04-30T20:38:46.283Z,62.16
2019-04-30T20:41:18.656Z,61.88
2019-04-30T20:43:49.419Z,61.64
2019-04-30T20:46:32.057Z,62.18
2019-04-30T20:48:54.439Z,62.45
2019-04-30T20:51:24.887Z,62.16
2019-04-30T20:53:56.129Z,63.46
2019-04-30T20:56:28.980Z,64.41
2019-04-30T20:59:05.274Z,64.60
2019-04-30T21:01:32.257Z,64.88
2019-04-30T21:04:02.714Z,65.56
2019-04-30T21:06:33.345Z,65.72
2019-04-30T21:09:04.839Z,65.59
2019-04-30T21:11:35.743Z,66.24
2019-04-30T21:14:08.953Z,66.71
2019-04-30T21:16:39.576Z,66.35
2019-04-30T21:19:10.435Z,66.79
2019-04-30T21:21:40.899Z,66.96
2019-04-30T21:24:11.723Z,67.18
2019-04-30T21:26:42.593Z,67.49
2019-04-30T21:29:15.828Z,67.79
2019-04-30T21:32:03.421Z,68.28
2019-04-30T21:34:42.114Z,68.71
2019-04-30T21:37:12.937Z,68.62
2019-04-30T21:39:43.775Z,68.80
2019-04-30T21:42:14.280Z,68.44
2019-04-30T21:44:45.146Z,68.77
2019-04-30T21:47:15.660Z,68.64
2019-04-30T21:49:46.112Z,68.89
2019-04-30T21:52:16.612Z,68.58
2019-04-30T21:54:48.698Z,68.10
2019-04-30T21:57:19.196Z,68.06
2019-04-30T21:59:49.682Z,67.66
2019-04-30T22:02:20.815Z,67.02
2019-04-30T22:04:51.644Z,67.11
2019-04-30T22:07:22.221Z,67.21
2019-04-30T22:09:52.667Z,67.57
2019-04-30T22:12:23.380Z,67.74
2019-04-30T22:14:53.878Z,67.50
2019-04-30T22:17:25.476Z,67.29
2019-04-30T22:19:55.923Z,67.62
2019-04-30T22:22:26.759Z,67.78
2019-04-30T22:24:59.606Z,67.95
2019-04-30T22:27:29.693Z,68.03
2019-04-30T22:30:00.355Z,67.99
2019-04-30T22:32:30.805Z,68.19
2019-04-30T22:35:20.249Z,68.33
2019-04-30T22:37:53.610Z,68.20
2019-04-30T22:40:24.379Z,68.47
2019-04-30T22:42:55.255Z,69.05
2019-04-30T22:45:33.816Z,69.10
2019-04-30T22:48:04.315Z,69.24
2019-04-30T22:50:35.873Z,69.33
2019-04-30T22:53:06.659Z,69.70
2019-04-30T22:55:37.907Z,70.28
2019-04-30T22:58:08.766Z,70.20
2019-04-30T23:00:44.868Z,70.41
2019-04-30T23:03:23.935Z,70.43
2019-04-30T23:05:54.444Z,70.45
2019-04-30T23:08:24.894Z,70.87
2019-04-30T23:10:55.728Z,70.94
2019-04-30T23:13:26.232Z,70.91
2019-04-30T23:15:57.514Z,71.42
2019-04-30T23:18:28.769Z,71.28
2019-04-30T23:20:59.736Z,71.46
2019-04-30T23:23:30.544Z,71.52
2019-04-30T23:26:00.985Z,71.58
2019-04-30T23:28:31.797Z,72.69
2019-04-30T23:31:02.249Z,72.75
2019-04-30T23:33:32.688Z,72.91
2019-04-30T23:36:03.600Z,72.98
2019-04-30T23:38:34.047Z,73.07
2019-04-30T23:41:04.588Z,73.40
2019-04-30T23:43:35.375Z,73.54
2019-04-30T23:46:06.192Z,73.53
2019-04-30T23:48:36.726Z,74.04
2019-04-30T23:51:07.225Z,74.39
2019-04-30T23:53:38.035Z,74.49
2019-04-30T23:56:08.475Z,74.67
2019-04-30T23:58:39.303Z,74.80
